Time;durP1;ratioP1;P1;durP2;ratioP2;P2;SDS_P1;SDS_P2;PMS_P1;PMS_P2;Temp;Humidity;BMP_temperature;BMP_pressure;BME280_temperature;BME280_humidity;BME280_pressure;Samples;Min_cycle;Max_cycle;Signal;HPM_P1;HPM_P2
2022/09/14 00:00:24;;;;;;;4.57;1.83;;;11.20;99.90;;;;;;5061848;28;20459;-80
2022/09/14 00:02:50;;;;;;;6.40;1.98;;;11.30;99.90;;;;;;5027847;28;20021;-80
2022/09/14 00:05:15;;;;;;;3.80;2.20;;;11.20;99.90;;;;;;5056572;28;20029;-80
2022/09/14 00:07:41;;;;;;;5.82;2.00;;;11.20;99.90;;;;;;5058409;28;20036;-80
2022/09/14 00:10:07;;;;;;;5.85;2.10;;;11.20;99.90;;;;;;5057677;28;20099;-80
2022/09/14 00:12:33;;;;;;;9.02;2.40;;;11.20;99.90;;;;;;5050882;28;20037;-80
2022/09/14 00:14:58;;;;;;;3.20;2.63;;;11.20;99.90;;;;;;5065779;28;20033;-80
2022/09/14 00:17:24;;;;;;;3.72;2.20;;;11.30;99.90;;;;;;5059925;28;20040;-80
2022/09/14 00:19:49;;;;;;;5.50;2.25;;;11.30;99.90;;;;;;5061749;28;20026;-80
2022/09/14 00:22:15;;;;;;;3.60;2.42;;;11.30;99.90;;;;;;5056778;28;20029;-80
2022/09/14 00:24:41;;;;;;;4.65;2.70;;;11.30;99.90;;;;;;5056547;28;20025;-80
2022/09/14 00:27:06;;;;;;;3.92;2.30;;;11.30;99.90;;;;;;5034390;28;20017;-80
2022/09/14 00:29:32;;;;;;;8.63;2.67;;;11.40;99.90;;;;;;5047868;28;20085;-80
2022/09/14 00:31:58;;;;;;;8.98;2.92;;;11.40;99.90;;;;;;5072439;22;20051;-79
2022/09/14 00:34:24;;;;;;;6.45;2.80;;;11.50;99.90;;;;;;5084227;28;20121;-79
2022/09/14 00:36:50;;;;;;;7.63;3.53;;;11.60;99.90;;;;;;5083094;28;20013;-79
2022/09/14 00:39:18;;;;;;;9.25;3.13;;;11.60;99.90;;;;;;5084922;28;20009;-79
2022/09/14 00:41:46;;;;;;;6.90;3.33;;;11.70;99.90;;;;;;5077673;28;20024;-79
2022/09/14 00:44:12;;;;;;;4.32;3.30;;;11.80;99.90;;;;;;5087572;28;20042;-79
2022/09/14 00:46:40;;;;;;;6.43;3.05;;;11.70;99.90;;;;;;5093401;28;20009;-79
2022/09/14 00:49:12;;;;;;;7.13;3.67;;;11.80;99.90;;;;;;5084651;28;20004;-79
2022/09/14 00:51:44;;;;;;;5.80;3.25;;;11.80;99.90;;;;;;5088090;28;20005;-79
2022/09/14 00:54:10;;;;;;;5.70;3.28;;;11.80;99.90;;;;;;5090793;28;20051;-79
2022/09/14 00:56:36;;;;;;;6.70;3.08;;;11.90;99.90;;;;;;5080508;28;20005;-79
2022/09/14 00:59:18;;;;;;;6.85;3.60;;;12.00;99.90;;;;;;5088744;28;20013;-79
2022/09/14 01:01:44;;;;;;;7.68;3.45;;;11.90;99.90;;;;;;5089297;28;20227;-79
2022/09/14 01:04:10;;;;;;;7.95;3.35;;;11.90;99.90;;;;;;5083708;28;20009;-79
2022/09/14 01:07:19;;;;;;;7.43;3.30;;;11.90;99.90;;;;;;5090761;28;20027;-79
2022/09/14 01:10:00;;;;;;;8.63;3.42;;;11.90;99.90;;;;;;4987811;28;20080;-79
2022/09/14 01:12:47;;;;;;;6.00;3.85;;;11.90;99.90;;;;;;5071842;28;20040;-79
2022/09/14 01:15:24;;;;;;;8.30;3.53;;;11.90;99.90;;;;;;5065381;28;20013;-79
2022/09/14 01:18:08;;;;;;;5.53;3.08;;;11.80;99.90;;;;;;5091921;28;20091;-79
2022/09/14 01:20:38;;;;;;;5.95;3.40;;;11.80;99.90;;;;;;5089063;28;20036;-79
2022/09/14 01:23:23;;;;;;;5.65;3.00;;;11.80;99.90;;;;;;5083028;28;20008;-79
2022/09/14 01:26:24;;;;;;;7.05;3.45;;;11.80;99.90;;;;;;5080610;28;20108;-79
2022/09/14 01:29:07;;;;;;;7.53;3.40;;;11.70;99.90;;;;;;5065491;28;20017;-79
2022/09/14 01:31:58;;;;;;;7.70;2.90;;;11.70;99.90;;;;;;5083671;28;20045;-79
2022/09/14 01:34:47;;;;;;;7.70;2.95;;;11.80;99.90;;;;;;5081595;28;20031;-79
2022/09/14 01:37:30;;;;;;;9.68;3.67;;;11.80;99.90;;;;;;5088327;28;20015;-79
2022/09/14 01:40:14;;;;;;;7.65;3.30;;;11.90;99.90;;;;;;5087010;28;20047;-79
2022/09/14 01:42:43;;;;;;;9.98;3.55;;;11.90;99.90;;;;;;5080799;28;20001;-79
2022/09/14 01:45:12;;;;;;;7.10;3.17;;;11.90;99.90;;;;;;5084257;28;20001;-79
2022/09/14 01:47:53;;;;;;;6.63;3.57;;;11.90;99.90;;;;;;5081702;28;20009;-79
2022/09/14 01:50:32;;;;;;;5.80;2.95;;;11.90;99.90;;;;;;5090071;28;20013;-79
2022/09/14 01:53:18;;;;;;;8.40;3.28;;;11.90;99.90;;;;;;5083490;28;20017;-79
2022/09/14 01:55:50;;;;;;;7.85;3.20;;;11.90;99.90;;;;;;5087755;28;20017;-79
2022/09/14 01:58:25;;;;;;;7.20;3.42;;;11.90;99.90;;;;;;5090329;28;20023;-79
2022/09/14 02:00:53;;;;;;;6.47;3.50;;;11.90;99.90;;;;;;5090541;28;20005;-79
2022/09/14 02:03:24;;;;;;;10.63;3.03;;;11.90;99.90;;;;;;5084662;28;20028;-79
2022/09/14 02:05:53;;;;;;;5.88;3.53;;;11.90;99.90;;;;;;5081151;28;20023;-80
2022/09/14 02:08:19;;;;;;;7.63;3.67;;;11.90;99.90;;;;;;5087235;28;20020;-79
2022/09/14 02:10:45;;;;;;;7.72;3.75;;;11.90;99.90;;;;;;5079506;28;20036;-79
2022/09/14 02:13:11;;;;;;;11.93;3.63;;;12.00;99.90;;;;;;5084557;28;20039;-79
2022/09/14 02:15:38;;;;;;;7.65;3.42;;;12.00;99.90;;;;;;5091360;28;20028;-79
2022/09/14 02:18:04;;;;;;;4.75;2.83;;;12.00;99.90;;;;;;5086879;28;20005;-79
2022/09/14 02:20:41;;;;;;;6.45;3.50;;;11.90;99.90;;;;;;5080382;28;20013;-79
2022/09/14 02:23:07;;;;;;;6.60;3.50;;;11.90;99.90;;;;;;5092010;28;20030;-79
2022/09/14 02:25:35;;;;;;;7.82;3.33;;;11.90;99.90;;;;;;5094823;28;20025;-79
2022/09/14 02:28:02;;;;;;;7.78;3.65;;;12.00;99.90;;;;;;5086166;28;20005;-79
2022/09/14 02:30:32;;;;;;;5.88;3.30;;;11.90;99.90;;;;;;5092879;28;20004;-79
2022/09/14 02:33:15;;;;;;;7.18;3.60;;;12.00;99.90;;;;;;5081937;28;20119;-79
2022/09/14 02:35:50;;;;;;;5.72;3.33;;;12.00;99.90;;;;;;5096041;28;20019;-79
2022/09/14 02:38:39;;;;;;;4.70;3.88;;;12.00;99.90;;;;;;5089688;28;20012;-79
2022/09/14 02:41:45;;;;;;;6.45;3.30;;;12.00;99.90;;;;;;5079022;28;20028;-79
2022/09/14 02:44:24;;;;;;;9.02;3.97;;;12.00;99.90;;;;;;5083350;28;20008;-79
2022/09/14 02:47:02;;;;;;;5.97;3.75;;;12.10;99.90;;;;;;5084510;28;20001;-79
2022/09/14 02:49:49;;;;;;;8.27;4.30;;;12.00;99.90;;;;;;5092288;28;20012;-79
2022/09/14 02:52:27;;;;;;;5.05;3.38;;;12.10;99.90;;;;;;5083795;28;20034;-79
2022/09/14 02:55:21;;;;;;;6.45;3.40;;;12.10;99.90;;;;;;5083955;28;20016;-79
2022/09/14 02:58:04;;;;;;;8.80;3.90;;;12.20;99.90;;;;;;5087158;28;20035;-79
2022/09/14 03:00:33;;;;;;;6.95;4.18;;;12.30;99.90;;;;;;5084316;28;20019;-79
2022/09/14 03:02:59;;;;;;;9.57;3.70;;;12.40;99.90;;;;;;5087693;28;20005;-79
2022/09/14 03:05:25;;;;;;;9.77;3.85;;;12.50;99.90;;;;;;5092370;28;20019;-79
2022/09/14 03:07:51;;;;;;;7.68;3.78;;;12.60;99.90;;;;;;5087451;28;20012;-79
2022/09/14 03:10:16;;;;;;;7.22;3.63;;;12.60;99.90;;;;;;5090659;28;20027;-79
2022/09/14 03:12:42;;;;;;;6.70;3.70;;;12.70;99.90;;;;;;5080351;28;20013;-79
2022/09/14 03:15:08;;;;;;;5.10;3.70;;;12.80;99.90;;;;;;5096394;28;20024;-79
2022/09/14 03:17:33;;;;;;;7.15;3.20;;;12.80;99.90;;;;;;5089589;28;20076;-79
2022/09/14 03:19:59;;;;;;;7.55;3.17;;;12.80;99.90;;;;;;5081294;28;20016;-79
2022/09/14 03:22:25;;;;;;;6.05;3.20;;;12.90;99.90;;;;;;5082627;28;20012;-79
2022/09/14 03:24:50;;;;;;;8.18;3.10;;;13.00;99.90;;;;;;5089263;28;20004;-79
2022/09/14 03:27:16;;;;;;;5.88;3.20;;;13.00;99.90;;;;;;5086119;28;20064;-79
2022/09/14 03:29:42;;;;;;;6.07;2.80;;;12.90;99.90;;;;;;5085712;28;20033;-79
2022/09/14 03:32:09;;;;;;;7.65;3.70;;;12.90;99.90;;;;;;5085175;28;20089;-78
2022/09/14 03:34:35;;;;;;;6.15;3.00;;;13.20;99.90;;;;;;5083199;28;20011;-79
2022/09/14 03:37:01;;;;;;;4.47;2.45;;;13.00;99.90;;;;;;5090428;28;20001;-79
2022/09/14 03:39:27;;;;;;;7.18;2.75;;;13.10;99.90;;;;;;5090096;28;20000;-79
2022/09/14 03:41:53;;;;;;;5.00;2.50;;;13.00;99.90;;;;;;5081307;28;20005;-79
2022/09/14 03:44:19;;;;;;;6.55;3.10;;;13.10;99.90;;;;;;5093690;28;20035;-79
2022/09/14 03:46:45;;;;;;;3.92;2.67;;;13.10;99.90;;;;;;5085835;28;20072;-79
2022/09/14 03:49:12;;;;;;;5.03;2.78;;;13.10;99.90;;;;;;5081486;28;20016;-79
2022/09/14 03:51:37;;;;;;;6.97;2.88;;;13.00;99.90;;;;;;5080415;28;20020;-79
2022/09/14 03:54:03;;;;;;;4.55;2.40;;;13.00;99.90;;;;;;5084008;28;20009;-79
2022/09/14 03:56:29;;;;;;;3.38;2.25;;;13.00;99.90;;;;;;5084619;28;20016;-79
2022/09/14 03:58:55;;;;;;;4.00;2.90;;;13.00;99.90;;;;;;5080886;28;20057;-79
2022/09/14 04:01:22;;;;;;;9.73;3.55;;;13.00;99.90;;;;;;5090010;28;20040;-79
2022/09/14 04:03:48;;;;;;;8.35;3.70;;;13.00;99.90;;;;;;5084049;28;20024;-79
2022/09/14 04:06:16;;;;;;;8.45;3.97;;;13.00;99.90;;;;;;5093587;28;20019;-79
2022/09/14 04:08:43;;;;;;;8.32;3.40;;;13.00;99.90;;;;;;5077363;28;20019;-79
2022/09/14 04:11:12;;;;;;;7.82;3.80;;;12.90;99.90;;;;;;5078346;28;20070;-79
2022/09/14 04:13:38;;;;;;;5.65;3.30;;;12.90;99.90;;;;;;5082180;28;20005;-79
2022/09/14 04:16:03;;;;;;;6.57;3.63;;;12.80;99.90;;;;;;5086842;28;20009;-79
2022/09/14 04:18:30;;;;;;;6.05;3.20;;;12.70;99.90;;;;;;5076985;28;20005;-79
2022/09/14 04:21:05;;;;;;;5.57;3.15;;;12.70;99.90;;;;;;5084089;28;20005;-79
2022/09/14 04:23:31;;;;;;;6.82;3.47;;;12.60;99.90;;;;;;5088021;28;20069;-79
2022/09/14 04:25:56;;;;;;;5.60;3.25;;;12.60;99.90;;;;;;5066469;28;20001;-80
2022/09/14 04:28:23;;;;;;;6.20;3.20;;;12.50;99.90;;;;;;5082941;28;20006;-80
2022/09/14 04:30:59;;;;;;;4.82;2.70;;;12.40;99.90;;;;;;5083998;28;20001;-79
2022/09/14 04:33:28;;;;;;;7.63;3.30;;;12.40;99.90;;;;;;5088137;28;20048;-79
2022/09/14 04:36:06;;;;;;;6.35;3.45;;;12.40;99.90;;;;;;5082156;28;20040;-79
2022/09/14 04:38:33;;;;;;;6.88;3.05;;;12.50;99.90;;;;;;5082598;28;20040;-79
2022/09/14 04:40:59;;;;;;;6.40;3.15;;;12.40;99.90;;;;;;5078796;28;20017;-79
2022/09/14 04:43:26;;;;;;;8.30;3.47;;;12.40;99.90;;;;;;5081225;28;20043;-78
2022/09/14 04:45:52;;;;;;;6.82;3.45;;;12.40;99.90;;;;;;5082177;28;20071;-79
2022/09/14 04:48:19;;;;;;;6.88;3.40;;;12.50;99.90;;;;;;5085262;28;20154;-78
2022/09/14 04:50:45;;;;;;;5.82;3.17;;;12.60;99.90;;;;;;5081621;28;20009;-79
2022/09/14 04:53:10;;;;;;;5.25;3.10;;;12.60;99.90;;;;;;5081086;28;20040;-79
2022/09/14 04:55:36;;;;;;;6.93;3.10;;;12.60;99.90;;;;;;5080599;28;20112;-79
2022/09/14 04:58:03;;;;;;;7.80;3.30;;;12.60;99.90;;;;;;5080413;28;20048;-78
2022/09/14 05:00:28;;;;;;;5.75;3.08;;;12.60;99.90;;;;;;5082885;28;20062;-79
2022/09/14 05:02:54;;;;;;;5.63;2.90;;;12.70;99.90;;;;;;5084030;28;20262;-79
2022/09/14 05:05:20;;;;;;;7.78;3.30;;;12.70;99.90;;;;;;5083453;28;20041;-79
2022/09/14 05:07:45;;;;;;;3.78;2.97;;;12.80;99.90;;;;;;5079643;28;20024;-78
2022/09/14 05:10:11;;;;;;;7.75;3.15;;;12.80;99.90;;;;;;5089334;28;20021;-78
2022/09/14 05:12:36;;;;;;;8.38;2.70;;;12.80;99.90;;;;;;5084209;28;20025;-79
2022/09/14 05:15:02;;;;;;;5.68;2.78;;;12.80;99.90;;;;;;5081667;28;20051;-78
2022/09/14 05:17:27;;;;;;;7.07;2.83;;;12.90;99.90;;;;;;5078211;28;20013;-78
2022/09/14 05:19:53;;;;;;;5.10;2.53;;;12.90;99.90;;;;;;5081149;28;20028;-79
2022/09/14 05:22:20;;;;;;;5.57;2.65;;;12.90;99.90;;;;;;5076243;28;20216;-79
2022/09/14 05:24:45;;;;;;;4.22;2.55;;;13.00;99.90;;;;;;5081847;28;20028;-79
2022/09/14 05:27:11;;;;;;;10.25;2.88;;;13.00;99.90;;;;;;5083364;28;20025;-78
2022/09/14 05:29:39;;;;;;;5.05;2.38;;;13.10;99.90;;;;;;5084153;28;20013;-79
2022/09/14 05:32:05;;;;;;;5.63;2.85;;;13.20;99.90;;;;;;5084276;28;20056;-79
2022/09/14 05:34:30;;;;;;;7.30;2.60;;;13.20;99.90;;;;;;5082659;28;20059;-79
2022/09/14 05:36:56;;;;;;;6.95;2.50;;;13.20;99.90;;;;;;5086875;28;20017;-78
2022/09/14 05:39:23;;;;;;;5.35;2.80;;;13.30;99.90;;;;;;5087902;28;20029;-79
2022/09/14 05:41:49;;;;;;;4.30;2.20;;;13.40;99.90;;;;;;5085966;28;20040;-79
2022/09/14 05:44:15;;;;;;;3.80;2.35;;;13.40;99.90;;;;;;5066376;28;20021;-79
2022/09/14 05:46:40;;;;;;;4.65;2.65;;;13.50;99.90;;;;;;5084811;28;20036;-79
2022/09/14 05:49:06;;;;;;;6.63;3.08;;;13.50;99.90;;;;;;5087275;28;20105;-79
2022/09/14 05:51:32;;;;;;;6.35;2.40;;;13.60;99.90;;;;;;5082013;28;20063;-79
2022/09/14 05:53:58;;;;;;;5.28;2.53;;;13.60;99.90;;;;;;5087195;28;20043;-79
2022/09/14 05:56:25;;;;;;;5.70;3.03;;;13.70;99.90;;;;;;5082885;28;20073;-79
2022/09/14 05:58:52;;;;;;;5.00;2.85;;;13.80;99.90;;;;;;5081317;28;20025;-79
2022/09/14 06:01:22;;;;;;;8.38;2.45;;;13.90;99.90;;;;;;5090880;28;20025;-79
2022/09/14 06:03:48;;;;;;;;;;;13.90;99.90;;;;;;5088616;28;20099;-79
2022/09/14 06:06:16;;;;;;;4.55;2.78;;;14.00;99.90;;;;;;5085446;28;20610;-79
2022/09/14 06:08:42;;;;;;;5.65;2.63;;;14.10;99.90;;;;;;5087846;28;20056;-79
2022/09/14 06:11:12;;;;;;;5.15;3.20;;;14.10;99.90;;;;;;5083247;28;20033;-79
2022/09/14 06:13:38;;;;;;;4.03;2.50;;;14.20;99.90;;;;;;5090363;28;20017;-78
2022/09/14 06:16:09;;;;;;;5.97;2.70;;;14.50;99.90;;;;;;5083523;28;20032;-79
2022/09/14 06:18:35;;;;;;;4.28;2.35;;;14.70;99.90;;;;;;5085656;28;20013;-79
2022/09/14 06:21:01;;;;;;;5.25;2.40;;;15.10;99.90;;;;;;5091212;28;20025;-79
2022/09/14 06:23:28;;;;;;;5.50;2.45;;;15.20;99.90;;;;;;5084718;28;20084;-79
2022/09/14 06:25:55;;;;;;;4.72;2.65;;;15.30;99.90;;;;;;5086555;28;20013;-79
2022/09/14 06:28:22;;;;;;;5.20;2.42;;;15.40;99.90;;;;;;5087575;28;20017;-80
2022/09/14 06:30:48;;;;;;;4.85;2.40;;;15.50;99.90;;;;;;5086192;28;20020;-80
2022/09/14 06:33:14;;;;;;;8.55;2.70;;;15.70;99.90;;;;;;5085403;28;20040;-80
2022/09/14 06:35:41;;;;;;;3.85;2.15;;;15.80;99.90;;;;;;5082801;28;20027;-80
2022/09/14 06:38:07;;;;;;;6.40;2.83;;;15.90;99.90;;;;;;5084404;28;20072;-80
2022/09/14 06:40:33;;;;;;;8.05;3.03;;;15.80;99.90;;;;;;5082729;28;20055;-80
2022/09/14 06:43:01;;;;;;;4.43;2.92;;;16.10;99.90;;;;;;5082565;28;20021;-80
2022/09/14 06:45:35;;;;;;;7.47;3.25;;;16.30;99.90;;;;;;5086564;28;20043;-80
2022/09/14 06:48:01;;;;;;;7.60;3.28;;;16.40;99.90;;;;;;5084315;28;20058;-80
2022/09/14 06:50:26;;;;;;;6.60;2.60;;;16.50;99.90;;;;;;5081282;28;20041;-80
2022/09/14 06:52:52;;;;;;;6.18;2.45;;;16.70;99.90;;;;;;5085270;28;20033;-79
2022/09/14 06:55:17;;;;;;;5.88;2.42;;;16.70;99.90;;;;;;5082015;28;20037;-80
2022/09/14 06:57:46;;;;;;;2.63;1.83;;;16.70;99.90;;;;;;5076151;28;20005;-79
2022/09/14 07:00:12;;;;;;;4.50;2.20;;;16.70;99.90;;;;;;5077069;28;20124;-79
2022/09/14 07:02:38;;;;;;;5.15;2.00;;;16.70;99.90;;;;;;5082131;28;20039;-80
2022/09/14 07:05:04;;;;;;;4.70;1.73;;;16.80;99.90;;;;;;5081334;28;20029;-80
2022/09/14 07:07:29;;;;;;;2.42;1.52;;;16.80;99.90;;;;;;5086802;28;20012;-80
2022/09/14 07:09:57;;;;;;;3.55;1.67;;;16.90;99.90;;;;;;5085070;28;20039;-80
2022/09/14 07:12:23;;;;;;;5.30;1.85;;;16.90;99.70;;;;;;5081680;28;20024;-80
2022/09/14 07:14:48;;;;;;;5.20;1.98;;;17.10;98.80;;;;;;5084199;28;20020;-79
2022/09/14 07:17:14;;;;;;;4.65;1.70;;;17.40;96.10;;;;;;5090270;28;20013;-80
2022/09/14 07:19:41;;;;;;;3.10;1.50;;;17.70;93.50;;;;;;5088675;28;20040;-79
2022/09/14 07:22:07;;;;;;;2.55;1.23;;;19.10;84.10;;;;;;5087913;28;20073;-80
2022/09/14 07:24:33;;;;;;;1.80;1.30;;;20.10;59.60;;;;;;5089019;28;20043;-78
2022/09/14 07:26:58;;;;;;;3.22;1.08;;;20.90;42.90;;;;;;5084792;28;20077;-80
2022/09/14 07:29:24;;;;;;;2.47;0.93;;;21.60;30.80;;;;;;5081502;28;20032;-80
2022/09/14 07:31:52;;;;;;;3.35;0.98;;;21.90;23.40;;;;;;5082986;28;20036;-80
2022/09/14 07:34:18;;;;;;;2.72;1.10;;;22.20;20.70;;;;;;5079230;28;20041;-80
2022/09/14 07:36:44;;;;;;;3.58;1.02;;;24.70;13.60;;;;;;5080188;28;20042;-80
2022/09/14 07:39:13;;;;;;;3.90;0.88;;;24.80;1.00;;;;;;5088343;28;20021;-80
2022/09/14 07:41:39;;;;;;;2.05;0.90;;;23.30;1.00;;;;;;5083733;28;20009;-80
2022/09/14 07:44:06;;;;;;;4.35;1.10;;;22.30;1.00;;;;;;5063666;28;20036;-80
2022/09/14 07:46:37;;;;;;;2.83;0.85;;;21.70;1.40;;;;;;5082150;28;20041;-80
2022/09/14 07:49:04;;;;;;;1.33;0.90;;;21.40;1.00;;;;;;5076065;28;20027;-80
2022/09/14 07:51:31;;;;;;;2.42;1.30;;;21.30;2.70;;;;;;5085624;28;20032;-80
2022/09/14 07:53:59;;;;;;;3.13;1.30;;;21.60;3.00;;;;;;5093636;28;20025;-80
2022/09/14 07:56:25;;;;;;;3.10;1.13;;;21.70;2.20;;;;;;5083047;28;20013;-80
2022/09/14 07:58:57;;;;;;;2.20;0.98;;;21.60;2.70;;;;;;5082008;28;20017;-80
2022/09/14 08:01:23;;;;;;;4.88;1.33;;;21.60;1.00;;;;;;5082581;28;20017;-80
2022/09/14 08:03:48;;;;;;;3.28;1.17;;;21.50;1.00;;;;;;5076502;28;20073;-80
2022/09/14 08:06:21;;;;;;;4.10;1.35;;;21.80;1.00;;;;;;5084780;28;20024;-80
2022/09/14 08:08:50;;;;;;;2.60;1.00;;;22.30;1.00;;;;;;5083743;28;20024;-80
2022/09/14 08:11:28;;;;;;;6.90;1.33;;;22.70;1.00;;;;;;5083925;28;20099;-80
2022/09/14 08:13:56;;;;;;;1.63;0.70;;;22.70;1.00;;;;;;5084498;28;20024;-80
2022/09/14 08:16:23;;;;;;;6.28;1.05;;;23.00;1.00;;;;;;5089607;28;20028;-80
2022/09/14 08:19:05;;;;;;;3.05;0.80;;;23.10;1.00;;;;;;5078644;28;20032;-80
2022/09/14 08:21:32;;;;;;;4.68;1.20;;;22.60;1.00;;;;;;5084003;28;20028;-80
2022/09/14 08:24:01;;;;;;;2.95;0.80;;;23.30;1.00;;;;;;5085580;28;20013;-81
2022/09/14 08:26:27;;;;;;;5.25;1.08;;;23.50;1.00;;;;;;5080838;28;20051;-81
2022/09/14 08:28:54;;;;;;;4.53;0.98;;;23.70;1.00;;;;;;5082111;28;20091;-81
2022/09/14 08:31:26;;;;;;;3.92;0.73;;;24.30;1.00;;;;;;5080599;28;20166;-82
2022/09/14 08:33:56;;;;;;;4.40;0.85;;;24.40;1.00;;;;;;5087493;28;20051;-81
2022/09/14 08:36:23;;;;;;;3.72;0.80;;;24.00;1.00;;;;;;5075244;28;20045;-81
2022/09/14 08:38:49;;;;;;;2.10;0.55;;;23.80;1.00;;;;;;5074684;28;20037;-81
2022/09/14 08:41:33;;;;;;;3.90;0.88;;;23.90;1.00;;;;;;5073808;28;20087;-82
2022/09/14 08:44:12;;;;;;;6.60;1.20;;;23.60;1.00;;;;;;5080540;28;20021;-81
2022/09/14 08:46:50;;;;;;;5.85;1.02;;;24.80;1.00;;;;;;5089104;28;20029;-81
2022/09/14 08:49:37;;;;;;;5.18;1.25;;;25.50;1.00;;;;;;5074518;28;20028;-81
2022/09/14 08:52:03;;;;;;;7.38;1.08;;;24.30;1.00;;;;;;5069529;28;20089;-81
2022/09/14 08:54:32;;;;;;;4.63;0.65;;;24.80;1.00;;;;;;5086526;28;20030;-82
2022/09/14 08:57:44;;;;;;;3.33;0.80;;;26.70;1.00;;;;;;5082095;28;20033;-81
2022/09/14 09:00:13;;;;;;;3.97;0.80;;;27.00;1.00;;;;;;5060974;28;20033;-81
2022/09/14 09:02:55;;;;;;;;;;;26.60;1.00;;;;;;5084983;28;20070;-78
2022/09/14 09:05:42;;;;;;;1.52;0.75;;;26.10;1.00;;;;;;5078446;28;19928;-78
2022/09/14 09:08:18;;;;;;;3.38;0.70;;;25.60;1.00;;;;;;5084243;28;20023;-77
2022/09/14 09:10:46;;;;;;;5.60;0.80;;;25.10;1.00;;;;;;5081087;28;20025;-79
2022/09/14 09:13:17;;;;;;;4.47;0.80;;;25.80;1.00;;;;;;5074819;28;20045;-78
2022/09/14 09:15:53;;;;;;;4.47;0.93;;;26.00;1.00;;;;;;5088568;28;20013;-78
2022/09/14 09:18:21;;;;;;;2.20;0.57;;;25.80;1.00;;;;;;5072939;28;20017;-77
2022/09/14 09:20:53;;;;;;;5.65;0.80;;;25.90;1.00;;;;;;5084304;28;20024;-78
2022/09/14 09:23:20;;;;;;;6.18;0.88;;;26.70;1.00;;;;;;5074832;28;20017;-78
2022/09/14 09:25:50;;;;;;;3.60;0.68;;;28.00;1.00;;;;;;5075488;28;20021;-78
2022/09/14 09:28:18;;;;;;;2.80;0.70;;;32.50;1.00;;;;;;5069821;28;20040;-78
2022/09/14 09:30:44;;;;;;;3.75;0.70;;;29.80;1.00;;;;;;5073740;28;20029;-78
2022/09/14 09:33:22;;;;;;;5.03;0.50;;;28.10;1.00;;;;;;5077908;28;20056;-78
2022/09/14 09:35:52;;;;;;;5.03;0.73;;;28.00;1.00;;;;;;5075983;28;20032;-78
2022/09/14 09:38:23;;;;;;;4.50;0.73;;;28.10;1.00;;;;;;5078317;28;20040;-78
2022/09/14 09:41:10;;;;;;;3.75;0.70;;;27.90;1.00;;;;;;5070114;28;20025;-78
2022/09/14 09:44:04;;;;;;;5.35;0.77;;;27.20;1.00;;;;;;5088150;28;20016;-79
2022/09/14 09:46:31;;;;;;;3.60;0.50;;;26.60;1.00;;;;;;5081355;28;20040;-79
2022/09/14 09:49:01;;;;;;;2.17;0.50;;;25.50;1.00;;;;;;5082711;28;20017;-78
2022/09/14 09:51:29;;;;;;;4.25;0.65;;;25.00;1.00;;;;;;5082744;28;20121;-78
2022/09/14 09:54:22;;;;;;;4.20;0.82;;;25.40;1.00;;;;;;5065524;28;20017;-76
2022/09/14 09:56:52;;;;;;;2.55;0.60;;;25.10;1.00;;;;;;5064992;28;20066;-80
2022/09/14 09:59:30;;;;;;;3.67;0.80;;;25.20;1.00;;;;;;5087148;28;20021;-80
2022/09/14 10:02:21;;;;;;;4.10;1.08;;;25.80;1.00;;;;;;5084302;28;20020;-80
2022/09/14 10:04:57;;;;;;;9.98;2.40;;;26.20;1.00;;;;;;5086414;28;20016;-80
2022/09/14 10:07:23;;;;;;;4.50;0.68;;;26.30;1.00;;;;;;5089268;28;20017;-81
2022/09/14 10:10:01;;;;;;;3.53;0.70;;;25.60;1.00;;;;;;5070240;28;20458;-81
2022/09/14 10:12:27;;;;;;;3.20;0.77;;;25.10;1.00;;;;;;5066930;28;20037;-81
2022/09/14 10:15:29;;;;;;;4.90;0.70;;;24.70;1.00;;;;;;5072457;28;20029;-82
2022/09/14 10:18:08;;;;;;;5.05;0.85;;;24.20;1.00;;;;;;5062184;28;20025;-82
2022/09/14 10:20:36;;;;;;;7.07;0.90;;;24.00;1.00;;;;;;5062045;28;20028;-82
2022/09/14 10:23:17;;;;;;;4.22;0.98;;;23.60;1.00;;;;;;5060151;28;20117;-81
2022/09/14 10:25:43;;;;;;;3.88;0.80;;;23.50;1.00;;;;;;5059150;28;20025;-82
2022/09/14 10:28:30;;;;;;;3.03;0.70;;;23.80;1.00;;;;;;5066259;28;20486;-81
2022/09/14 10:31:01;;;;;;;3.33;0.75;;;24.00;1.00;;;;;;5056859;28;20013;-82
2022/09/14 10:33:28;;;;;;;3.05;0.80;;;23.90;1.00;;;;;;5058840;28;20056;-81
2022/09/14 10:36:28;;;;;;;5.10;0.60;;;24.50;1.00;;;;;;5079421;28;20084;-81
2022/09/14 10:39:11;;;;;;;2.72;0.40;;;25.30;1.00;;;;;;5061876;28;20025;-81
2022/09/14 10:42:03;;;;;;;2.30;0.50;;;25.80;1.00;;;;;;5067019;28;20027;-82
2022/09/14 10:45:07;;;;;;;2.58;0.47;;;25.70;1.00;;;;;;5079558;28;20048;-82
2022/09/14 10:48:01;;;;;;;2.95;0.47;;;25.60;1.00;;;;;;5059372;28;20036;-82
2022/09/14 10:50:40;;;;;;;4.18;0.75;;;25.50;1.00;;;;;;5071641;28;20025;-81
2022/09/14 10:53:42;;;;;;;3.88;0.40;;;25.90;1.00;;;;;;5072310;28;20103;-82
2022/09/14 10:56:14;;;;;;;2.38;0.52;;;25.10;1.00;;;;;;5058454;28;20047;-81
2022/09/14 10:59:09;;;;;;;3.17;0.40;;;25.10;1.00;;;;;;5046475;28;20048;-82
2022/09/14 11:01:50;;;;;;;1.58;0.30;;;25.50;1.00;;;;;;5040607;28;20017;-82
2022/09/14 11:04:45;;;;;;;3.53;0.45;;;25.40;1.00;;;;;;5073974;28;20032;-82
2022/09/14 11:07:35;;;;;;;2.42;0.60;;;25.20;1.00;;;;;;5052165;28;20107;-82
2022/09/14 11:10:30;;;;;;;1.77;0.40;;;25.60;1.00;;;;;;5067157;28;20047;-82
2022/09/14 11:13:01;;;;;;;6.32;0.68;;;25.60;1.00;;;;;;5054096;28;20053;-83
2022/09/14 11:15:36;;;;;;;2.10;0.50;;;25.30;1.00;;;;;;5084281;28;20027;-82
2022/09/14 11:18:21;;;;;;;5.60;0.57;;;24.90;1.00;;;;;;5071069;28;20021;-82
2022/09/14 11:20:56;;;;;;;1.55;0.30;;;24.30;1.00;;;;;;5075125;28;20029;-82
2022/09/14 11:23:30;;;;;;;2.53;0.43;;;24.40;1.00;;;;;;5063104;28;20021;-82
2022/09/14 11:26:11;;;;;;;1.85;0.30;;;24.40;1.00;;;;;;5080420;28;20052;-82
2022/09/14 11:28:59;;;;;;;1.73;0.40;;;24.70;1.00;;;;;;5059328;28;20068;-82
2022/09/14 11:31:30;;;;;;;2.47;0.30;;;24.60;1.00;;;;;;5057603;28;20036;-83
2022/09/14 11:34:16;;;;;;;1.83;0.52;;;24.20;1.00;;;;;;5064293;28;20071;-81
2022/09/14 11:36:49;;;;;;;1.38;0.30;;;24.10;1.00;;;;;;5056901;28;20029;-81
2022/09/14 11:39:36;;;;;;;2.38;0.30;;;23.80;1.00;;;;;;5047923;28;20021;-81
2022/09/14 11:42:05;;;;;;;1.45;0.30;;;23.40;1.00;;;;;;5057991;28;20020;-81
2022/09/14 11:44:43;;;;;;;3.17;0.50;;;23.20;1.00;;;;;;5068982;28;20064;-81
2022/09/14 11:47:09;;;;;;;1.42;0.43;;;23.60;1.00;;;;;;5057886;28;20017;-81
2022/09/14 11:50:05;;;;;;;2.75;0.50;;;23.60;1.00;;;;;;5057123;28;20032;-81
2022/09/14 11:52:32;;;;;;;1.88;0.38;;;23.70;1.00;;;;;;5068361;28;20043;-80
2022/09/14 11:55:00;;;;;;;2.28;0.43;;;24.00;1.00;;;;;;5073970;28;20025;-80
2022/09/14 11:57:26;;;;;;;1.90;0.50;;;24.00;1.00;;;;;;5056409;28;20029;-80
2022/09/14 12:00:00;;;;;;;1.98;0.38;;;24.30;1.00;;;;;;5053737;28;20021;-80
2022/09/14 12:02:26;;;;;;;1.88;0.30;;;23.70;1.00;;;;;;5053731;28;20017;-80
2022/09/14 12:05:04;;;;;;;2.28;0.40;;;24.10;1.00;;;;;;5054203;28;20490;-80
2022/09/14 12:07:39;;;;;;;1.98;0.30;;;24.10;1.00;;;;;;5053589;28;20017;-80
2022/09/14 12:10:51;;;;;;;2.20;0.40;;;24.10;1.00;;;;;;5053269;28;20096;-81
2022/09/14 12:13:19;;;;;;;3.33;0.50;;;24.20;1.00;;;;;;5061888;28;20039;-80
2022/09/14 12:16:04;;;;;;;0.88;0.30;;;24.80;1.00;;;;;;5073422;28;20020;-80
2022/09/14 12:18:31;;;;;;;5.20;0.38;;;24.60;1.00;;;;;;5056036;28;20108;-80
2022/09/14 12:21:03;;;;;;;1.00;0.28;;;24.70;1.00;;;;;;5072259;28;20056;-80
2022/09/14 12:23:42;;;;;;;2.17;0.40;;;25.10;1.00;;;;;;5073599;28;20052;-81
2022/09/14 12:26:11;;;;;;;2.65;0.52;;;25.60;1.00;;;;;;5073769;28;20084;-80
2022/09/14 12:28:36;;;;;;;4.43;0.40;;;25.70;1.00;;;;;;5063647;28;20104;-81
2022/09/14 12:31:02;;;;;;;1.52;0.30;;;25.10;1.00;;;;;;5052764;28;20100;-81
2022/09/14 12:33:30;;;;;;;4.00;0.50;;;24.90;1.00;;;;;;5052938;28;20040;-81
2022/09/14 12:36:32;;;;;;;2.22;0.40;;;24.90;1.00;;;;;;5053988;28;20025;-81
2022/09/14 12:38:57;;;;;;;4.28;0.60;;;24.80;1.00;;;;;;5024387;28;20041;-81
2022/09/14 12:41:23;;;;;;;3.88;0.77;;;24.50;1.00;;;;;;5067699;28;20371;-81
2022/09/14 12:43:49;;;;;;;2.35;0.68;;;24.50;1.00;;;;;;5078045;28;20020;-81
2022/09/14 12:46:20;;;;;;;2.03;0.50;;;24.10;1.00;;;;;;5063000;28;20087;-81
2022/09/14 12:48:46;;;;;;;1.23;0.40;;;23.90;1.00;;;;;;5058208;28;20017;-80
2022/09/14 12:51:38;;;;;;;3.83;0.60;;;23.40;1.00;;;;;;5057999;28;20447;-81
2022/09/14 12:54:10;;;;;;;2.05;0.50;;;23.00;1.00;;;;;;5046463;28;20064;-81
2022/09/14 12:56:36;;;;;;;2.88;0.40;;;22.80;1.00;;;;;;5065696;28;20552;-80
2022/09/14 12:59:11;;;;;;;3.47;0.63;;;22.90;1.00;;;;;;5057415;28;20021;-80
2022/09/14 13:02:01;;;;;;;3.17;0.60;;;23.20;1.00;;;;;;5057729;28;20017;-81
2022/09/14 13:04:35;;;;;;;5.30;0.52;;;23.10;1.00;;;;;;5057533;28;20108;-81
2022/09/14 13:07:04;;;;;;;1.17;0.40;;;23.10;1.00;;;;;;5057765;28;20051;-81
2022/09/14 13:09:31;;;;;;;3.65;0.55;;;23.20;1.00;;;;;;5057511;28;20472;-81
2022/09/14 13:12:01;;;;;;;2.28;0.43;;;23.50;1.00;;;;;;5057394;28;20375;-81
2022/09/14 13:14:31;;;;;;;1.33;0.35;;;23.60;1.00;;;;;;5075805;28;20025;-81